Mc Nary, Texas
Current Conditions -  °F | °C
As of 11:40 AM on Thursday 27 Nov 2014 (Local Time) from MMCS Reporting Station
Clear Clear  
Wind Chill: 63°   Ceiling: Unl
Heat Index: 63°   Visibility: 10mi
Dew Point: 30°   Wind: 0mph
Humidity: 30%   Direction: NA
Pressure: 30.34"   Gusts: NA
Location:  31.5192°N, 105.683°W
Report Text: MMCS 271840Z 00000KT 10SM SKC 17/M01 A3034
Loading
Personal Weather Stations






























Interactive Weather Map New forecast layout! Learn more

10-Day Weather Forecast

Advertisements
Track Severe Weather on mobile